Dover, Ohio
Current Conditions -  °F | °C
As of 9:53 PM on Friday 21 Nov 2014 (Local Time) from KPHD Reporting Station
Clear Clear  
Wind Chill:   Ceiling: Unl
Heat Index: 13°   Visibility: 10mi
Dew Point:   Wind: 6mph
Humidity: 84%   Direction: 140°SE
Pressure: 30.45"   Gusts: NA
Location:  40.52°N, 81.47°W
Report Text: KPHD 220253Z AUTO 14005KT 10SM CLR M11/M13 A3045 RMK AO2 SLP327 T11061128 58010
Loading
Personal Weather Stations






























Interactive Weather Map New forecast layout! Learn more

10-Day Weather Forecast

Advertisements
Track Severe Weather on mobile